Time;durP1;ratioP1;P1;durP2;ratioP2;P2;SDS_P1;SDS_P2;PMS_P1;PMS_P2;Temp;Humidity;BMP_temperature;BMP_pressure;BME280_temperature;BME280_humidity;BME280_pressure;Samples;Min_cycle;Max_cycle;Signal;HPM_P1;HPM_P2
2022/10/19 00:04:58;;;;;;;1999.90;999.90;;;11.40;99.90;;;;;;6717118;88;20847;-74
2022/10/19 00:14:59;;;;;;;1999.90;999.90;;;11.40;99.90;;;;;;6722159;88;20315;-76
2022/10/19 00:25:00;;;;;;;1999.90;999.90;;;11.50;99.90;;;;;;6715330;88;20339;-76
2022/10/19 00:35:02;;;;;;;1999.90;999.90;;;11.70;99.90;;;;;;6714065;88;20560;-77
2022/10/19 00:45:11;;;;;;;1999.90;999.90;;;11.60;99.90;;;;;;6715740;88;20669;-77
2022/10/19 00:55:12;;;;;;;1999.90;999.90;;;11.60;99.90;;;;;;6713166;88;20250;-76
2022/10/19 01:05:13;;;;;;;1999.90;999.90;;;11.70;99.90;;;;;;6718601;88;20208;-76
2022/10/19 01:15:33;;;;;;;1999.90;999.90;;;11.50;99.90;;;;;;6716734;88;20197;-76
2022/10/19 01:25:53;;;;;;;1999.90;999.90;;;11.50;99.90;;;;;;6718104;88;20271;-76
2022/10/19 01:36:08;;;;;;;1999.90;999.90;;;11.50;99.90;;;;;;6712476;88;20296;-75
2022/10/19 01:46:20;;;;;;;1999.90;999.90;;;11.60;99.90;;;;;;6714964;88;20193;-75
2022/10/19 01:56:24;;;;;;;1999.90;999.90;;;11.70;99.90;;;;;;6713572;88;20298;-75
2022/10/19 02:06:25;;;;;;;1999.90;999.90;;;11.70;99.90;;;;;;6720971;88;20209;-77
2022/10/19 02:16:34;;;;;;;1999.90;999.90;;;11.60;99.90;;;;;;6723301;88;20311;-75
2022/10/19 02:26:34;;;;;;;1999.90;999.90;;;11.60;99.90;;;;;;6716320;88;20193;-75
2022/10/19 02:36:35;;;;;;;1999.90;999.90;;;11.60;99.90;;;;;;6716473;88;20678;-76
2022/10/19 02:46:54;;;;;;;1999.90;999.90;;;11.50;99.90;;;;;;6711573;88;20211;-76
2022/10/19 02:56:55;;;;;;;1999.90;999.90;;;11.50;99.90;;;;;;6714239;88;20202;-75
2022/10/19 03:06:55;;;;;;;1999.90;999.90;;;11.40;99.90;;;;;;6719450;88;20218;-75
2022/10/19 03:16:56;;;;;;;1999.90;999.90;;;11.40;99.90;;;;;;6719926;88;20185;-75
2022/10/19 03:26:57;;;;;;;1999.90;999.90;;;11.30;99.90;;;;;;6717252;88;20242;-75
2022/10/19 03:36:58;;;;;;;1999.90;999.90;;;11.20;99.90;;;;;;6715441;88;20560;-75
2022/10/19 03:46:58;;;;;;;1999.90;999.90;;;11.00;99.90;;;;;;6708384;77;20997;-75
2022/10/19 03:56:59;;;;;;;1999.90;999.90;;;10.80;99.90;;;;;;6690905;88;20680;-76
2022/10/19 04:06:59;;;;;;;1999.90;999.90;;;10.80;99.90;;;;;;6692062;88;20348;-76
2022/10/19 04:17:00;;;;;;;1999.90;999.90;;;10.80;99.90;;;;;;6691689;88;20185;-75
2022/10/19 04:27:01;;;;;;;1999.90;999.90;;;10.80;99.90;;;;;;6692869;88;20675;-75
2022/10/19 04:37:01;;;;;;;1999.90;999.90;;;10.80;99.90;;;;;;6687774;88;20210;-75
2022/10/19 04:47:02;;;;;;;1999.90;999.90;;;10.90;99.90;;;;;;6690838;88;20203;-75
2022/10/19 04:57:03;;;;;;;1999.90;999.90;;;10.90;99.90;;;;;;6697543;88;20179;-75
2022/10/19 05:07:03;;;;;;;1999.90;999.90;;;10.90;99.90;;;;;;6677905;88;20693;-76
2022/10/19 05:17:04;;;;;;;1999.90;999.90;;;10.80;99.90;;;;;;6699825;88;20311;-76
2022/10/19 05:27:04;;;;;;;1999.90;999.90;;;10.80;99.90;;;;;;6701642;88;20193;-76
2022/10/19 05:37:05;;;;;;;1999.90;999.90;;;10.80;99.90;;;;;;6687962;88;20353;-76
2022/10/19 05:47:05;;;;;;;1999.90;999.90;;;10.80;99.90;;;;;;6694390;88;20824;-76
2022/10/19 05:57:06;;;;;;;1999.90;999.90;;;10.80;99.90;;;;;;6696241;88;20707;-76
2022/10/19 06:07:06;;;;;;;1999.90;999.90;;;10.80;99.90;;;;;;6687755;88;20213;-77
2022/10/19 06:17:07;;;;;;;1999.90;999.90;;;10.70;99.90;;;;;;6704719;88;20226;-75
2022/10/19 06:27:07;;;;;;;1999.90;999.90;;;10.80;99.90;;;;;;6705113;88;20645;-76
2022/10/19 06:37:08;;;;;;;1999.90;999.90;;;10.60;99.90;;;;;;6685576;88;20216;-77
2022/10/19 06:47:08;;;;;;;1999.90;999.90;;;10.70;99.90;;;;;;6665784;88;20216;-76
2022/10/19 06:57:09;;;;;;;1999.90;999.90;;;10.70;99.90;;;;;;6672989;88;20231;-77
2022/10/19 07:07:09;;;;;;;1999.90;999.90;;;10.90;99.90;;;;;;6684165;88;20231;-76
2022/10/19 07:17:11;;;;;;;1999.90;999.90;;;11.00;99.90;;;;;;6690930;88;20198;-76
2022/10/19 07:27:12;;;;;;;1999.90;999.90;;;11.00;99.90;;;;;;6668002;88;20182;-77
2022/10/19 07:37:12;;;;;;;1999.90;999.90;;;11.00;99.90;;;;;;6686398;88;20677;-77
2022/10/19 07:47:13;;;;;;;1999.90;999.90;;;11.00;99.90;;;;;;6689513;88;20296;-76
2022/10/19 07:57:14;;;;;;;1999.90;999.90;;;11.30;99.90;;;;;;6686608;88;20189;-77
2022/10/19 08:07:14;;;;;;;1999.90;999.90;;;11.00;99.90;;;;;;6678854;88;20215;-77
2022/10/19 08:17:16;;;;;;;1999.90;999.90;;;10.90;99.90;;;;;;6699647;88;20744;-76
2022/10/19 08:27:16;;;;;;;1999.90;999.90;;;10.90;99.90;;;;;;6678478;88;20999;-76
2022/10/19 08:37:17;;;;;;;1999.90;999.90;;;10.90;99.90;;;;;;6694708;88;20206;-77
2022/10/19 08:47:30;;;;;;;1999.90;999.90;;;10.90;99.90;;;;;;6688870;88;20198;-77
2022/10/19 08:57:52;;;;;;;1999.90;999.90;;;11.00;99.90;;;;;;6681721;88;20613;-77
2022/10/19 09:07:54;;;;;;;1999.90;999.90;;;11.40;99.90;;;;;;6685071;88;20197;-76
2022/10/19 09:17:54;;;;;;;1999.90;999.90;;;11.50;99.90;;;;;;6681809;88;20342;-76
2022/10/19 09:28:09;;;;;;;1999.90;999.90;;;11.90;99.90;;;;;;6683167;88;20700;-76
2022/10/19 09:38:15;;;;;;;1999.90;999.90;;;12.20;99.90;;;;;;6691363;88;20264;-77
2022/10/19 09:48:26;;;;;;;1999.90;999.90;;;12.30;99.90;;;;;;6696270;88;20228;-77
2022/10/19 09:58:28;;;;;;;1999.90;999.90;;;14.60;99.90;;;;;;6679650;88;20558;-78
2022/10/19 10:08:33;;;;;;;1999.90;999.90;;;16.30;99.90;;;;;;6675854;88;20215;-78
2022/10/19 10:18:38;;;;;;;1999.90;999.90;;;17.20;99.90;;;;;;6678082;88;20197;-78
2022/10/19 10:28:46;;;;;;;1999.90;999.90;;;18.80;99.90;;;;;;6681776;88;20521;-77
2022/10/19 10:38:52;;;;;;;1999.90;999.90;;;19.70;99.90;;;;;;6671648;88;20267;-77
2022/10/19 10:48:57;;;;;;;1999.90;999.90;;;20.80;99.90;;;;;;6691801;88;20200;-77
2022/10/19 10:59:16;;;;;;;1999.90;999.90;;;19.80;99.90;;;;;;6676890;88;20198;-77
2022/10/19 11:09:41;;;;;;;1999.90;999.90;;;18.60;99.90;;;;;;6683556;88;20310;-77
2022/10/19 11:19:44;;;;;;;1999.90;999.90;;;19.30;99.90;;;;;;6670014;88;20673;-77
2022/10/19 11:29:53;;;;;;;1999.90;999.90;;;19.40;99.90;;;;;;6672467;88;20317;-77
2022/10/19 11:40:12;;;;;;;1999.90;999.90;;;20.10;99.90;;;;;;6694673;88;20671;-77
2022/10/19 11:50:33;;;;;;;1999.90;999.90;;;19.50;99.90;;;;;;6676346;88;20218;-77
2022/10/19 12:01:01;;;;;;;1999.90;999.90;;;19.40;99.90;;;;;;6664365;88;20361;-77
2022/10/19 12:11:24;;;;;;;1999.90;999.90;;;19.00;99.90;;;;;;6672523;88;20193;-77
2022/10/19 12:21:28;;;;;;;1999.90;999.90;;;20.30;99.90;;;;;;6692715;88;20216;-78
2022/10/19 12:31:30;;;;;;;1999.90;999.90;;;20.80;99.90;;;;;;6682682;88;20188;-77
2022/10/19 12:41:54;;;;;;;1999.90;999.90;;;22.30;99.90;;;;;;6657514;88;20178;-77
2022/10/19 12:51:59;;;;;;;1999.90;999.90;;;24.60;99.90;;;;;;6657302;88;20212;-77
2022/10/19 13:02:04;;;;;;;1999.90;999.90;;;23.50;99.90;;;;;;6672361;88;20183;-77
2022/10/19 13:12:16;;;;;;;1999.90;999.90;;;24.10;99.90;;;;;;6676316;88;20180;-76
2022/10/19 13:22:26;;;;;;;1999.90;999.90;;;24.70;99.90;;;;;;6684697;88;20193;-77
2022/10/19 13:32:31;;;;;;;1999.90;999.90;;;23.40;99.90;;;;;;6676895;88;20209;-76
2022/10/19 13:42:32;;;;;;;1999.90;999.90;;;21.60;99.90;;;;;;6684454;88;20362;-76
2022/10/19 13:53:21;;;;;;;1999.90;999.90;;;21.10;99.90;;;;;;6673316;88;20193;-76
2022/10/19 14:03:39;;;;;;;1999.90;999.90;;;20.90;99.90;;;;;;6683207;88;20196;-77
2022/10/19 14:13:40;;;;;;;1999.90;999.90;;;20.40;99.90;;;;;;6666793;88;20314;-76
2022/10/19 14:23:41;;;;;;;1999.90;999.90;;;19.50;99.90;;;;;;6670776;88;20697;-76
2022/10/19 14:33:46;;;;;;;1999.90;999.90;;;18.80;99.90;;;;;;6657898;88;20251;-76
2022/10/19 14:43:46;;;;;;;;;;;18.40;99.90;;;;;;6672097;88;20180;-76
2022/10/19 14:53:58;;;;;;;1999.90;999.90;;;18.10;99.90;;;;;;6690353;88;20582;-76
2022/10/19 15:03:59;;;;;;;1999.90;999.90;;;18.00;99.90;;;;;;6668587;88;20326;-76
2022/10/19 15:14:04;;;;;;;1999.90;999.90;;;18.10;99.90;;;;;;6683127;88;20206;-77
2022/10/19 15:24:14;;;;;;;1999.90;999.90;;;18.20;99.90;;;;;;6683794;88;20186;-77
2022/10/19 15:34:29;;;;;;;1999.90;999.90;;;18.70;99.90;;;;;;6677026;88;20192;-77
2022/10/19 15:44:39;;;;;;;;;;;18.10;99.90;;;;;;6678434;88;20785;-76
2022/10/19 16:04:43;;;;;;;1999.90;999.90;;;17.20;99.90;;;;;;6698277;88;20226;-77
2022/10/19 16:14:43;;;;;;;1999.90;999.90;;;16.80;99.90;;;;;;6682868;88;20263;-77
2022/10/19 16:24:44;;;;;;;1999.90;999.90;;;16.40;99.90;;;;;;6683469;88;20198;-78
2022/10/19 16:34:45;;;;;;;1999.90;999.90;;;15.90;99.90;;;;;;6691503;88;20346;-77
2022/10/19 16:44:46;;;;;;;1999.90;999.90;;;15.70;99.90;;;;;;6704721;88;20185;-78
2022/10/19 16:54:46;;;;;;;1999.90;999.90;;;15.40;99.90;;;;;;6698705;88;20187;-78
2022/10/19 17:04:47;;;;;;;1999.90;999.90;;;15.10;99.90;;;;;;6690410;88;20226;-79
2022/10/19 17:14:47;;;;;;;1999.90;999.90;;;14.80;99.90;;;;;;6697630;88;20201;-78
2022/10/19 17:24:48;;;;;;;1999.90;999.90;;;14.70;99.90;;;;;;6682550;88;20214;-78
2022/10/19 17:34:48;;;;;;;1999.90;999.90;;;14.50;99.90;;;;;;6679967;88;20178;-77
2022/10/19 17:44:49;;;;;;;1999.90;999.90;;;14.50;99.90;;;;;;6693492;88;20213;-78
2022/10/19 17:54:50;;;;;;;1999.90;999.90;;;14.20;99.90;;;;;;6690040;88;20226;-78
2022/10/19 18:04:50;;;;;;;1999.90;999.90;;;14.10;99.90;;;;;;6695941;88;20210;-79
2022/10/19 18:14:51;;;;;;;1999.90;999.90;;;14.10;99.90;;;;;;6692405;88;20197;-78
2022/10/19 18:24:51;;;;;;;1999.90;999.90;;;14.10;99.90;;;;;;6698911;88;20840;-79
2022/10/19 18:34:52;;;;;;;1999.90;999.90;;;14.00;99.90;;;;;;6702536;88;20504;-78
2022/10/19 18:44:52;;;;;;;1999.90;999.90;;;14.00;99.90;;;;;;6692264;88;20253;-78
2022/10/19 18:54:53;;;;;;;1999.90;999.90;;;13.90;99.90;;;;;;6690660;88;20237;-78
2022/10/19 19:04:53;;;;;;;1999.90;999.90;;;13.80;99.90;;;;;;6692903;88;21090;-78
2022/10/19 19:14:54;;;;;;;1999.90;999.90;;;13.70;99.90;;;;;;6688802;88;20280;-79
2022/10/19 19:24:55;;;;;;;1999.90;999.90;;;13.60;99.90;;;;;;6704893;88;20215;-79
2022/10/19 19:34:55;;;;;;;1999.90;999.90;;;13.50;99.90;;;;;;6700934;88;20199;-80
2022/10/19 19:44:56;;;;;;;1999.90;999.90;;;13.40;99.90;;;;;;6697656;88;20518;-80
2022/10/19 19:54:56;;;;;;;1999.90;999.90;;;13.20;99.90;;;;;;6694887;88;20622;-79
2022/10/19 20:04:57;;;;;;;1999.90;999.90;;;13.10;99.90;;;;;;6693292;88;20314;-79
2022/10/19 20:14:57;;;;;;;1999.90;999.90;;;13.00;99.90;;;;;;6691142;88;20622;-79
2022/10/19 20:24:58;;;;;;;1999.90;999.90;;;13.00;99.90;;;;;;6707054;88;20203;-79
2022/10/19 20:34:58;;;;;;;1999.90;999.90;;;13.00;99.90;;;;;;6712052;88;20186;-79
2022/10/19 20:44:59;;;;;;;1999.90;999.90;;;12.90;99.90;;;;;;6693044;88;20642;-77
2022/10/19 20:54:59;;;;;;;1999.90;999.90;;;12.80;99.90;;;;;;6685435;88;20350;-79
2022/10/19 21:05:00;;;;;;;1999.90;999.90;;;12.80;99.90;;;;;;6712011;88;20235;-78
2022/10/19 21:15:00;;;;;;;1999.90;999.90;;;12.60;99.90;;;;;;6701295;88;20224;-79
2022/10/19 21:25:01;;;;;;;1999.90;999.90;;;12.60;99.90;;;;;;6689773;88;20224;-77
2022/10/19 21:35:02;;;;;;;1999.90;999.90;;;12.50;99.90;;;;;;6684851;88;20217;-80
2022/10/19 21:45:03;;;;;;;1999.90;999.90;;;12.50;99.90;;;;;;6669817;88;20203;-80
2022/10/19 22:05:07;;;;;;;1999.90;999.90;;;12.40;99.90;;;;;;6668640;88;20342;-78
2022/10/19 22:15:08;;;;;;;1999.90;999.90;;;12.30;99.90;;;;;;6672522;88;20190;-79
2022/10/19 22:25:08;;;;;;;1999.90;999.90;;;12.30;99.90;;;;;;6709901;88;20194;-79
2022/10/19 22:35:09;;;;;;;1999.90;999.90;;;12.40;99.90;;;;;;6661026;88;20206;-79
2022/10/19 22:45:09;;;;;;;1999.90;999.90;;;12.40;99.90;;;;;;6692511;88;20209;-78
2022/10/19 22:55:10;;;;;;;1999.90;999.90;;;12.40;99.90;;;;;;6635738;88;20302;-78
2022/10/19 23:05:10;;;;;;;1999.90;999.90;;;12.50;99.90;;;;;;6725162;88;20248;-79
2022/10/19 23:15:11;;;;;;;1999.90;999.90;;;12.60;99.90;;;;;;6720225;88;20196;-79
2022/10/19 23:25:11;;;;;;;1999.90;999.90;;;12.80;99.90;;;;;;6721180;88;20228;-78
2022/10/19 23:35:12;;;;;;;1999.90;999.90;;;13.10;99.90;;;;;;6708510;88;20284;-78
2022/10/19 23:45:14;;;;;;;1999.90;999.90;;;13.20;99.90;;;;;;6714709;88;20869;-78
2022/10/19 23:55:14;;;;;;;1999.90;999.90;;;13.30;99.90;;;;;;6709517;88;20322;-78
